Orbital elements of FENGYUN 1C DEB
| Launched | 9 May 1999 |
| Flight ended | – |
| Launch site | Taiyuan Space Center, PRC |
| Owner | People's Republic of China |
| NORAD ID | 32461 |
| Date fetched |
Epoch osculation |
Inc. [°] |
Ecc. | RA asc node [hr] |
Arg Peri. [°] |
Mean anom [°] |
Mean motion [rev/day] |
Abs. mag |
| Date fetched |
Epoch osculation |
Inc. [°] |
Ecc. | RA asc node [hr] |
Arg Peri. [°] |
Mean anom [°] |
Mean motion [rev/day] |
Abs. mag |
| 2026 May 01 17:56 | 2026 Apr 30 12:22:07 | 98.3266 | 0.02338 | 21.5270 | 103.0322 | 289.4811 | 13.73232 | – |
| 2026 Apr 30 17:56 | 2026 Apr 30 12:22:07 | 98.3266 | 0.02338 | 21.5270 | 103.0322 | 289.4811 | 13.73232 | – |
| 2026 Apr 29 17:57 | 2026 Apr 20 01:08:06 | 98.3279 | 0.02332 | 20.9189 | 131.1547 | 289.4811 | 13.73232 | – |
| 2026 Apr 28 17:56 | 2026 Apr 20 01:08:06 | 98.3279 | 0.02332 | 20.9189 | 131.1547 | 289.4811 | 13.73232 | – |
| 2026 Apr 27 17:58 | 2026 Apr 20 01:08:06 | 98.3279 | 0.02332 | 20.9189 | 131.1547 | 289.4811 | 13.73232 | – |
| 2026 Apr 26 17:58 | 2026 Apr 20 01:08:06 | 98.3279 | 0.02332 | 20.9189 | 131.1547 | 289.4811 | 13.73232 | – |
| 2026 Apr 25 17:58 | 2026 Apr 20 01:08:06 | 98.3279 | 0.02332 | 20.9189 | 131.1547 | 289.4811 | 13.73232 | – |
| 2026 Apr 24 17:59 | 2026 Apr 20 01:08:06 | 98.3279 | 0.02332 | 20.9189 | 131.1547 | 289.4811 | 13.73232 | – |
| 2026 Apr 23 17:57 | 2026 Apr 17 01:26:53 | 98.3281 | 0.02330 | 20.7454 | 139.1949 | 289.4811 | 13.73232 | – |
| 2026 Apr 22 17:57 | 2026 Apr 17 01:26:53 | 98.3281 | 0.02330 | 20.7454 | 139.1949 | 289.4811 | 13.73232 | – |
| 2026 Apr 21 17:57 | 2026 Apr 17 01:26:53 | 98.3281 | 0.02330 | 20.7454 | 139.1949 | 289.4811 | 13.73232 | – |
| 2026 Apr 20 17:57 | 2026 Apr 17 01:26:53 | 98.3281 | 0.02330 | 20.7454 | 139.1949 | 289.4811 | 13.73232 | – |
| 2026 Apr 19 17:58 | 2026 Apr 17 01:26:53 | 98.3281 | 0.02330 | 20.7454 | 139.1949 | 289.4811 | 13.73232 | – |
| 2026 Apr 18 17:56 | 2026 Apr 09 01:06:05 | 98.3291 | 0.02325 | 20.2798 | 160.8118 | 289.4811 | 13.73232 | – |
| 2026 Apr 16 17:57 | 2026 Apr 09 01:06:05 | 98.3291 | 0.02325 | 20.2798 | 160.8118 | 289.4811 | 13.73232 | – |
| 2026 Apr 14 17:57 | 2026 Apr 09 01:06:05 | 98.3291 | 0.02325 | 20.2798 | 160.8118 | 289.4811 | 13.73232 | – |
| 2026 Apr 13 17:57 | 2026 Apr 09 01:06:05 | 98.3291 | 0.02325 | 20.2798 | 160.8118 | 289.4811 | 13.73232 | – |
| 2026 Apr 12 17:57 | 2026 Apr 08 12:16:23 | 98.3290 | 0.02324 | 20.2487 | 162.2564 | 289.4811 | 13.73232 | – |
| 2026 Apr 11 17:57 | 2026 Apr 08 12:16:23 | 98.3290 | 0.02324 | 20.2487 | 162.2564 | 289.4811 | 13.73232 | – |
| 2026 Apr 10 17:58 | 2026 Apr 08 12:16:23 | 98.3290 | 0.02324 | 20.2487 | 162.2564 | 289.4811 | 13.73232 | – |
| 2026 Apr 09 18:01 | 2026 Apr 08 12:16:23 | 98.3290 | 0.02324 | 20.2487 | 162.2564 | 289.4811 | 13.73232 | – |
| 2026 Apr 08 17:57 | 2026 Apr 08 12:16:23 | 98.3290 | 0.02324 | 20.2487 | 162.2564 | 289.4811 | 13.73232 | – |
| 2026 Apr 07 17:57 | 2026 Apr 02 08:18:58 | 98.3291 | 0.02321 | 19.8904 | 178.9099 | 289.4811 | 13.73232 | – |
| 2026 Apr 06 17:57 | 2026 Apr 02 08:18:58 | 98.3291 | 0.02321 | 19.8904 | 178.9099 | 289.4811 | 13.73232 | – |
| 2026 Apr 05 17:56 | 2026 Apr 02 08:18:58 | 98.3291 | 0.02321 | 19.8904 | 178.9099 | 289.4811 | 13.73232 | – |
| 2026 Apr 04 17:57 | 2026 Apr 02 08:18:58 | 98.3291 | 0.02321 | 19.8904 | 178.9099 | 289.4811 | 13.73232 | – |